Time;durP1;ratioP1;P1;durP2;ratioP2;P2;SDS_P1;SDS_P2;PMS_P1;PMS_P2;Temp;Humidity;BMP_temperature;BMP_pressure;BME280_temperature;BME280_humidity;BME280_pressure;Samples;Min_cycle;Max_cycle;Signal;HPM_P1;HPM_P2
2022/04/12 00:00:22;;;;;;;12.00;8.67;;;;;;;;;;5033786;28;20231;-73
2022/04/12 00:02:50;;;;;;;9.60;8.60;;;;;;;;;;5034226;28;20270;-73
2022/04/12 00:05:19;;;;;;;11.03;8.93;;;;;;;;;;5033480;28;20226;-73
2022/04/12 00:08:02;;;;;;;10.10;7.93;;;;;;;;;;5034693;28;20224;-72
2022/04/12 00:10:31;;;;;;;11.50;8.73;;;;;;;;;;5033849;28;20235;-73
2022/04/12 00:13:00;;;;;;;10.00;9.00;;;;;;;;;;5034459;28;20253;-72
2022/04/12 00:15:30;;;;;;;10.93;9.10;;;;;;;;;;5033782;28;20208;-73
2022/04/12 00:20:44;;;;;;;11.47;8.77;;;;;;;;;;5034243;28;20219;-72
2022/04/12 00:23:14;;;;;;;10.83;9.37;;;;;;;;;;5024519;28;20208;-72
2022/04/12 00:25:44;;;;;;;11.20;9.47;;;;;;;;;;5030031;28;20216;-73
2022/04/12 00:28:13;;;;;;;9.73;8.73;;;;;;;;;;5033460;28;20228;-72
2022/04/12 00:30:43;;;;;;;12.00;8.87;;;;;;;;;;5034183;28;20214;-73
2022/04/12 00:33:12;;;;;;;9.73;8.73;;;;;;;;;;5034063;28;20188;-73
2022/04/12 00:35:40;;;;;;;10.33;9.23;;;;;;;;;;5032819;28;20227;-73
2022/04/12 00:38:17;;;;;;;10.77;9.43;;;;;;;;;;5033755;28;20695;-72
2022/04/12 00:40:46;;;;;;;12.67;9.33;;;;;;;;;;5033725;28;20210;-72
2022/04/12 00:43:16;;;;;;;10.20;8.60;;;;;;;;;;5032549;28;20208;-72
2022/04/12 00:45:46;;;;;;;10.13;8.90;;;;;;;;;;5033953;28;20253;-73
2022/04/12 00:48:15;;;;;;;10.63;8.83;;;;;;;;;;5033741;28;20219;-74
2022/04/12 00:50:45;;;;;;;9.77;8.77;;;;;;;;;;5033725;28;20207;-71
2022/04/12 00:53:14;;;;;;;12.27;9.37;;;;;;;;;;5022954;28;20259;-73
2022/04/12 00:55:42;;;;;;;11.40;8.93;;;;;;;;;;5013885;28;20227;-73
2022/04/12 00:58:11;;;;;;;11.20;9.43;;;;;;;;;;5013875;28;20220;-73
2022/04/12 01:00:39;;;;;;;12.30;9.53;;;;;;;;;;5021419;28;20211;-72
2022/04/12 01:03:09;;;;;;;9.70;8.70;;;;;;;;;;5033174;28;20204;-73
2022/04/12 01:05:38;;;;;;;9.77;8.77;;;;;;;;;;5033341;28;20261;-72
2022/04/12 01:08:06;;;;;;;10.50;9.20;;;;;;;;;;5027929;28;20618;-73
2022/04/12 01:10:36;;;;;;;9.60;8.70;;;;;;;;;;5017220;28;20211;-71
2022/04/12 01:13:05;;;;;;;11.13;9.60;;;;;;;;;;5028490;28;20200;-73
2022/04/12 01:15:35;;;;;;;11.27;9.20;;;;;;;;;;5018223;28;20655;-73
2022/04/12 01:18:03;;;;;;;10.90;9.27;;;;;;;;;;5028524;28;20223;-72
2022/04/12 01:20:33;;;;;;;11.43;8.40;;;;;;;;;;5031622;28;20204;-73
2022/04/12 01:23:05;;;;;;;12.10;10.47;;;;;;;;;;5031751;28;20613;-73
2022/04/12 01:25:35;;;;;;;11.27;9.10;;;;;;;;;;5013276;28;20275;-71
2022/04/12 01:28:03;;;;;;;10.83;9.70;;;;;;;;;;5022290;28;20230;-73
2022/04/12 01:30:32;;;;;;;11.27;8.87;;;;;;;;;;5023852;28;20204;-73
2022/04/12 01:33:00;;;;;;;11.03;9.23;;;;;;;;;;5033085;28;20214;-72
2022/04/12 01:35:29;;;;;;;10.87;9.23;;;;;;;;;;5031056;28;20204;-72
2022/04/12 01:37:57;;;;;;;10.20;8.83;;;;;;;;;;5032682;28;20314;-74
2022/04/12 01:40:26;;;;;;;10.83;9.17;;;;;;;;;;5023580;28;20628;-73
2022/04/12 01:42:55;;;;;;;10.27;9.27;;;;;;;;;;5016476;28;20200;-73
2022/04/12 01:45:24;;;;;;;11.80;8.57;;;;;;;;;;5026046;28;20204;-73
2022/04/12 01:47:53;;;;;;;11.93;8.60;;;;;;;;;;5022923;28;20762;-73
2022/04/12 01:50:21;;;;;;;9.73;8.57;;;;;;;;;;5012896;28;20331;-73
2022/04/12 01:52:50;;;;;;;10.30;9.27;;;;;;;;;;5023779;28;20212;-72
2022/04/12 01:55:18;;;;;;;9.20;8.27;;;;;;;;;;5031136;28;20247;-72
2022/04/12 01:57:47;;;;;;;11.27;8.97;;;;;;;;;;5025689;28;20220;-73
2022/04/12 02:00:17;;;;;;;10.53;8.73;;;;;;;;;;5021068;28;20250;-72
2022/04/12 02:02:45;;;;;;;12.07;8.90;;;;;;;;;;5013014;28;20335;-72
2022/04/12 02:05:14;;;;;;;9.57;8.50;;;;;;;;;;5029142;28;20207;-73
2022/04/12 02:07:43;;;;;;;10.10;9.00;;;;;;;;;;5030410;28;20223;-73
2022/04/12 02:10:12;;;;;;;9.77;8.67;;;;;;;;;;5022237;28;20219;-72
2022/04/12 02:12:40;;;;;;;9.90;8.90;;;;;;;;;;5026688;28;20203;-73
2022/04/12 02:15:09;;;;;;;10.23;9.23;;;;;;;;;;5015643;28;20212;-73
2022/04/12 02:17:39;;;;;;;10.90;9.00;;;;;;;;;;5032632;28;20223;-73
2022/04/12 02:20:08;;;;;;;11.70;8.97;;;;;;;;;;5022915;28;20614;-73
2022/04/12 02:22:36;;;;;;;12.57;8.87;;;;;;;;;;5019994;28;20215;-73
2022/04/12 02:25:06;;;;;;;12.87;9.27;;;;;;;;;;5017399;28;20208;-72
2022/04/12 02:27:34;;;;;;;11.23;8.90;;;;;;;;;;5032011;28;20695;-72
2022/04/12 02:30:02;;;;;;;11.77;9.00;;;;;;;;;;5023421;28;20266;-71
2022/04/12 02:32:32;;;;;;;11.97;8.80;;;;;;;;;;5025121;28;20215;-73
2022/04/12 02:35:02;;;;;;;12.40;9.43;;;;;;;;;;5020504;28;20200;-72
2022/04/12 02:37:30;;;;;;;12.23;9.37;;;;;;;;;;5031144;28;20216;-72
2022/04/12 02:39:58;;;;;;;10.10;8.60;;;;;;;;;;5016145;28;20208;-73
2022/04/12 02:42:27;;;;;;;11.90;9.10;;;;;;;;;;5025242;28;20214;-72
2022/04/12 02:44:55;;;;;;;9.37;8.27;;;;;;;;;;5035871;28;20254;-72
2022/04/12 02:47:25;;;;;;;9.20;8.10;;;;;;;;;;5032940;28;20282;-73
2022/04/12 02:49:54;;;;;;;10.07;8.90;;;;;;;;;;5029830;28;20705;-73
2022/04/12 02:52:24;;;;;;;10.23;8.10;;;;;;;;;;5035231;28;20215;-73
2022/04/12 02:54:52;;;;;;;9.60;8.30;;;;;;;;;;5019738;28;20656;-72
2022/04/12 02:57:20;;;;;;;9.53;7.77;;;;;;;;;;5015661;28;20289;-73
2022/04/12 02:59:49;;;;;;;10.90;8.43;;;;;;;;;;5024034;28;20200;-73
2022/04/12 03:02:18;;;;;;;10.00;8.57;;;;;;;;;;5031266;28;20257;-71
2022/04/12 03:04:46;;;;;;;10.73;8.27;;;;;;;;;;5032172;28;20250;-73
2022/04/12 03:07:15;;;;;;;10.73;8.47;;;;;;;;;;5029532;28;20274;-72
2022/04/12 03:09:45;;;;;;;9.37;8.27;;;;;;;;;;5030185;28;20591;-72
2022/04/12 03:12:13;;;;;;;9.57;8.60;;;;;;;;;;5035124;28;20599;-73
2022/04/12 03:14:42;;;;;;;10.83;9.60;;;;;;;;;;5035497;28;20655;-72
2022/04/12 03:17:16;;;;;;;10.03;8.40;;;;;;;;;;5034215;28;20226;-74
2022/04/12 03:19:44;;;;;;;13.40;9.47;;;;;;;;;;5034856;28;20262;-74
2022/04/12 03:22:12;;;;;;;13.53;9.70;;;;;;;;;;5035515;28;20211;-72
2022/04/12 03:24:41;;;;;;;11.77;10.00;;;;;;;;;;5035215;28;20211;-72
2022/04/12 03:27:11;;;;;;;14.13;9.53;;;;;;;;;;5035113;28;20707;-72
2022/04/12 03:29:39;;;;;;;11.93;9.87;;;;;;;;;;5035111;28;20254;-72
2022/04/12 03:32:08;;;;;;;11.30;9.50;;;;;;;;;;5034899;28;20233;-72
2022/04/12 03:34:39;;;;;;;11.20;9.67;;;;;;;;;;5035059;28;20246;-72
2022/04/12 03:37:07;;;;;;;11.20;10.10;;;;;;;;;;5034034;28;20572;-73
2022/04/12 03:39:36;;;;;;;12.03;9.73;;;;;;;;;;5034437;28;20203;-74
2022/04/12 03:42:05;;;;;;;11.70;10.33;;;;;;;;;;5034579;28;20216;-73
2022/04/12 03:44:35;;;;;;;11.53;10.33;;;;;;;;;;5033283;28;20199;-72
2022/04/12 03:47:03;;;;;;;11.67;9.97;;;;;;;;;;5034955;28;20235;-72
2022/04/12 03:49:32;;;;;;;12.57;10.30;;;;;;;;;;5023187;28;20204;-73
2022/04/12 03:52:00;;;;;;;12.70;9.90;;;;;;;;;;5015416;28;20216;-73
2022/04/12 03:54:28;;;;;;;11.60;10.40;;;;;;;;;;5014890;28;20217;-72
2022/04/12 03:56:57;;;;;;;13.07;10.23;;;;;;;;;;5014479;28;20278;-74
2022/04/12 03:59:25;;;;;;;12.03;9.33;;;;;;;;;;5024944;28;20200;-73
2022/04/12 04:01:55;;;;;;;12.20;10.03;;;;;;;;;;5033747;28;20204;-73
2022/04/12 04:04:23;;;;;;;10.73;9.00;;;;;;;;;;5034393;28;20578;-73
2022/04/12 04:06:52;;;;;;;10.77;9.37;;;;;;;;;;5034163;28;20493;-73
2022/04/12 04:09:21;;;;;;;10.93;9.73;;;;;;;;;;5034628;28;20215;-73
2022/04/12 04:11:50;;;;;;;12.10;9.87;;;;;;;;;;5034343;28;20215;-73
2022/04/12 04:14:18;;;;;;;11.43;10.13;;;;;;;;;;5030416;28;20253;-73
2022/04/12 04:16:46;;;;;;;12.47;10.00;;;;;;;;;;5030324;28;20227;-74
2022/04/12 04:19:16;;;;;;;13.27;9.87;;;;;;;;;;5033026;28;20234;-74
2022/04/12 04:21:45;;;;;;;12.50;10.30;;;;;;;;;;5034188;28;20208;-73
2022/04/12 04:24:13;;;;;;;10.57;9.47;;;;;;;;;;5033904;28;20208;-74
2022/04/12 04:26:42;;;;;;;12.47;10.67;;;;;;;;;;5032053;28;20279;-73
2022/04/12 04:29:11;;;;;;;11.57;10.07;;;;;;;;;;5033426;28;20681;-72
2022/04/12 04:31:39;;;;;;;11.50;10.30;;;;;;;;;;5029467;28;20210;-74
2022/04/12 04:34:07;;;;;;;13.87;10.63;;;;;;;;;;5033165;28;20686;-73
2022/04/12 04:36:37;;;;;;;10.83;9.70;;;;;;;;;;5031917;28;20277;-73
2022/04/12 04:39:05;;;;;;;12.60;10.10;;;;;;;;;;5033675;28;20196;-74
2022/04/12 04:41:34;;;;;;;10.97;9.80;;;;;;;;;;5031311;28;20204;-74
2022/04/12 04:44:02;;;;;;;11.67;9.63;;;;;;;;;;5032841;28;20208;-74
2022/04/12 04:46:30;;;;;;;12.20;10.27;;;;;;;;;;5032504;28;20614;-74
2022/04/12 04:48:59;;;;;;;11.87;10.67;;;;;;;;;;5033775;28;20226;-74
2022/04/12 04:51:27;;;;;;;12.87;10.73;;;;;;;;;;5034434;28;20225;-74
2022/04/12 04:53:59;;;;;;;11.50;9.93;;;;;;;;;;5032635;28;20214;-74
2022/04/12 04:56:28;;;;;;;11.53;10.33;;;;;;;;;;5030981;28;20207;-74
2022/04/12 04:58:58;;;;;;;14.33;10.50;;;;;;;;;;5027536;28;20586;-74
2022/04/12 05:01:26;;;;;;;13.27;10.43;;;;;;;;;;5031977;28;20214;-73
2022/04/12 05:03:55;;;;;;;11.33;10.13;;;;;;;;;;5029386;28;20261;-74
2022/04/12 05:06:25;;;;;;;11.77;10.53;;;;;;;;;;5029441;28;20301;-74
2022/04/12 05:08:53;;;;;;;10.83;9.23;;;;;;;;;;5030965;28;20223;-73
2022/04/12 05:11:23;;;;;;;12.40;10.50;;;;;;;;;;5030704;28;20253;-74
2022/04/12 05:13:52;;;;;;;12.33;9.90;;;;;;;;;;5027839;28;20672;-74
2022/04/12 05:16:21;;;;;;;13.53;10.33;;;;;;;;;;5029778;28;20210;-75
2022/04/12 05:18:51;;;;;;;13.70;10.47;;;;;;;;;;5030087;28;20240;-74
2022/04/12 05:21:20;;;;;;;10.93;9.27;;;;;;;;;;5022167;28;20206;-74
2022/04/12 05:23:48;;;;;;;12.17;9.30;;;;;;;;;;5029307;28;20646;-75
2022/04/12 05:26:17;;;;;;;11.90;8.63;;;;;;;;;;5027811;28;20219;-74
2022/04/12 05:28:47;;;;;;;10.57;9.17;;;;;;;;;;5030146;28;20224;-74
2022/04/12 05:31:16;;;;;;;10.77;9.20;;;;;;;;;;5032411;28;20261;-74
2022/04/12 05:33:44;;;;;;;12.27;8.90;;;;;;;;;;5032258;28;20620;-74
2022/04/12 05:36:13;;;;;;;9.63;8.70;;;;;;;;;;5023643;28;20199;-74
2022/04/12 05:38:41;;;;;;;12.10;8.93;;;;;;;;;;5027166;28;20208;-74
2022/04/12 05:41:09;;;;;;;9.60;8.33;;;;;;;;;;5031198;28;20207;-73
2022/04/12 05:43:38;;;;;;;11.23;8.23;;;;;;;;;;5030381;28;20285;-74
2022/04/12 05:46:08;;;;;;;13.90;8.87;;;;;;;;;;5032090;28;20210;-74
2022/04/12 05:48:37;;;;;;;8.90;8.00;;;;;;;;;;5028451;28;20257;-74
2022/04/12 05:51:05;;;;;;;11.50;8.40;;;;;;;;;;5023561;28;20199;-74
2022/04/12 05:53:34;;;;;;;8.83;7.93;;;;;;;;;;5029079;28;20199;-73
2022/04/12 05:56:02;;;;;;;9.80;8.30;;;;;;;;;;5021446;28;20226;-73
2022/04/12 05:58:35;;;;;;;10.73;7.97;;;;;;;;;;5030905;28;20271;-74
2022/04/12 06:01:03;;;;;;;9.13;8.23;;;;;;;;;;5031861;28;20211;-73
2022/04/12 06:03:33;;;;;;;11.53;8.73;;;;;;;;;;5027839;28;20211;-73
2022/04/12 06:06:01;;;;;;;13.40;8.70;;;;;;;;;;5025236;28;20238;-74
2022/04/12 06:08:30;;;;;;;11.57;8.57;;;;;;;;;;5033076;28;20628;-75
2022/04/12 06:10:58;;;;;;;10.63;9.07;;;;;;;;;;4733949;22;10002015;-74
2022/04/12 06:13:27;;;;;;;10.40;8.23;;;;;;;;;;5031773;22;20729;-76
2022/04/12 06:15:55;;;;;;;10.07;8.67;;;;;;;;;;5015974;28;20335;-73
2022/04/12 06:18:24;;;;;;;10.17;8.40;;;;;;;;;;5014993;28;20252;-75
2022/04/12 06:20:53;;;;;;;9.90;8.63;;;;;;;;;;5016432;28;20216;-74
2022/04/12 06:23:22;;;;;;;9.10;8.10;;;;;;;;;;5013924;28;20212;-75
2022/04/12 06:25:50;;;;;;;9.13;7.93;;;;;;;;;;5014682;28;20209;-74
2022/04/12 06:28:19;;;;;;;9.90;7.97;;;;;;;;;;5015173;28;20236;-74
2022/04/12 06:30:47;;;;;;;9.53;8.53;;;;;;;;;;5014167;28;20205;-74
2022/04/12 06:33:16;;;;;;;9.40;8.40;;;;;;;;;;5014839;28;20220;-73
2022/04/12 06:35:45;;;;;;;9.87;8.53;;;;;;;;;;5015653;28;20219;-74
2022/04/12 06:38:14;;;;;;;11.50;8.47;;;;;;;;;;5014321;28;20615;-74
2022/04/12 06:40:44;;;;;;;10.20;8.00;;;;;;;;;;5014985;28;20208;-74
2022/04/12 06:43:13;;;;;;;11.50;8.63;;;;;;;;;;5014720;28;20205;-75
2022/04/12 06:45:41;;;;;;;10.93;9.00;;;;;;;;;;5014367;28;20204;-74
2022/04/12 06:48:10;;;;;;;11.67;8.97;;;;;;;;;;5012047;28;20224;-74
2022/04/12 06:50:38;;;;;;;9.77;8.43;;;;;;;;;;5008656;28;20603;-75
2022/04/12 06:53:07;;;;;;;12.00;8.30;;;;;;;;;;5013980;28;20227;-75
2022/04/12 06:55:37;;;;;;;9.63;8.63;;;;;;;;;;5012370;28;20208;-74
2022/04/12 06:58:05;;;;;;;10.37;8.40;;;;;;;;;;5013845;28;20236;-75
2022/04/12 07:00:34;;;;;;;8.77;7.50;;;;;;;;;;5014805;28;20204;-74
2022/04/12 07:03:02;;;;;;;11.03;7.83;;;;;;;;;;5015417;28;20790;-74
2022/04/12 07:05:31;;;;;;;8.77;7.27;;;;;;;;;;5015586;28;20209;-74
2022/04/12 07:07:59;;;;;;;10.03;8.13;;;;;;;;;;5014869;28;20277;-74
2022/04/12 07:10:28;;;;;;;8.97;7.63;;;;;;;;;;5014307;28;20238;-74
2022/04/12 07:13:00;;;;;;;9.10;7.43;;;;;;;;;;5014722;28;20247;-74
2022/04/12 07:15:28;;;;;;;8.03;7.13;;;;;;;;;;5015486;28;20215;-75
2022/04/12 07:17:57;;;;;;;9.37;7.70;;;;;;;;;;5014397;28;20691;-75
2022/04/12 07:20:25;;;;;;;8.87;7.10;;;;;;;;;;5014539;28;20262;-74
2022/04/12 07:22:53;;;;;;;8.03;7.10;;;;;;;;;;5013197;28;20212;-75
2022/04/12 07:25:22;;;;;;;9.67;7.23;;;;;;;;;;5014802;28;20207;-74
2022/04/12 07:27:50;;;;;;;9.43;6.70;;;;;;;;;;5013391;28;20258;-74
2022/04/12 07:30:20;;;;;;;10.17;6.77;;;;;;;;;;5013128;28;20733;-74
2022/04/12 07:33:08;;;;;;;7.63;6.83;;;;;;;;;;5001149;28;20683;-75
2022/04/12 07:35:37;;;;;;;7.30;6.60;;;;;;;;;;5015120;28;20212;-74
2022/04/12 07:38:06;;;;;;;9.40;6.80;;;;;;;;;;5014576;28;20259;-74
2022/04/12 07:40:34;;;;;;;7.30;6.43;;;;;;;;;;5013746;28;20231;-74
2022/04/12 07:43:02;;;;;;;6.90;6.20;;;;;;;;;;5013745;28;20200;-74
2022/04/12 07:45:32;;;;;;;8.90;6.87;;;;;;;;;;5012138;28;20214;-73
2022/04/12 07:48:01;;;;;;;8.70;6.47;;;;;;;;;;5013491;28;20221;-74
2022/04/12 07:50:29;;;;;;;7.73;6.73;;;;;;;;;;5013134;28;20228;-74
2022/04/12 07:52:57;;;;;;;6.63;5.90;;;;;;;;;;5013015;28;20208;-74
2022/04/12 07:55:26;;;;;;;6.53;5.93;;;;;;;;;;5009797;28;20236;-74
2022/04/12 07:57:54;;;;;;;6.73;5.90;;;;;;;;;;5009366;28;20725;-74
2022/04/12 08:00:23;;;;;;;7.13;6.30;;;;;;;;;;5010640;28;20259;-74
2022/04/12 08:02:53;;;;;;;7.43;6.37;;;;;;;;;;5014579;28;20633;-74
2022/04/12 08:05:22;;;;;;;10.13;5.80;;;;;;;;;;5013532;28;20643;-74
2022/04/12 08:07:50;;;;;;;8.50;5.77;;;;;;;;;;5010997;28;20626;-74
2022/04/12 08:10:19;;;;;;;8.63;5.13;;;;;;;;;;5008430;28;20687;-73
2022/04/12 08:12:48;;;;;;;8.17;5.47;;;;;;;;;;5011809;28;20267;-74
2022/04/12 08:15:17;;;;;;;6.63;5.67;;;;;;;;;;5007884;28;20227;-74
2022/04/12 08:17:46;;;;;;;7.50;5.30;;;;;;;;;;5012757;28;20224;-73
2022/04/12 08:20:16;;;;;;;6.23;5.63;;;;;;;;;;5010646;28;20205;-73
2022/04/12 08:35:09;;;;;;;6.43;5.73;;;;;;;;;;4745044;27;9999677;-74
2022/04/12 08:39:43;;;;;;;8.37;6.40;;;;;;;;;;4742497;27;9999889;-74
2022/04/12 08:42:11;;;;;;;6.40;5.70;;;;;;;;;;5089280;28;20664;-74
2022/04/12 08:44:47;;;;;;;7.97;5.60;;;;;;;;;;5084557;28;20711;-73
2022/04/12 08:47:16;;;;;;;7.47;5.93;;;;;;;;;;5085702;28;20230;-73
2022/04/12 08:49:44;;;;;;;6.13;5.50;;;;;;;;;;5086251;28;20206;-73
2022/04/12 08:52:14;;;;;;;6.70;5.20;;;;;;;;;;5082856;28;20202;-73
2022/04/12 08:54:44;;;;;;;8.10;5.80;;;;;;;;;;5070835;28;20199;-74
2022/04/12 08:57:13;;;;;;;8.00;5.87;;;;;;;;;;5081538;28;20222;-74
2022/04/12 08:59:42;;;;;;;7.20;5.90;;;;;;;;;;5082874;28;20218;-73
2022/04/12 09:02:11;;;;;;;6.97;5.60;;;;;;;;;;5080894;28;20275;-74
2022/04/12 09:04:39;;;;;;;6.63;5.73;;;;;;;;;;5088126;28;20649;-74
2022/04/12 09:07:09;;;;;;;7.37;6.00;;;;;;;;;;5084354;28;21352;-74
2022/04/12 09:09:39;;;;;;;7.87;5.80;;;;;;;;;;5080336;28;20206;-74
2022/04/12 09:12:11;;;;;;;8.10;5.97;;;;;;;;;;5076177;28;20210;-74
2022/04/12 09:14:42;;;;;;;7.53;5.90;;;;;;;;;;5079587;28;20228;-74
2022/04/12 09:17:12;;;;;;;10.80;6.13;;;;;;;;;;5075441;28;20222;-74
2022/04/12 09:19:43;;;;;;;6.83;5.67;;;;;;;;;;5077883;28;20279;-73
2022/04/12 09:22:12;;;;;;;7.27;6.10;;;;;;;;;;5074498;28;20256;-74
2022/04/12 09:24:45;;;;;;;6.83;5.93;;;;;;;;;;5077270;28;20199;-74
2022/04/12 09:27:16;;;;;;;6.53;5.73;;;;;;;;;;5073948;28;20756;-73
2022/04/12 09:29:45;;;;;;;8.77;6.20;;;;;;;;;;5075266;28;20202;-74
2022/04/12 09:32:15;;;;;;;7.80;5.97;;;;;;;;;;5098253;28;20198;-74
2022/04/12 09:34:44;;;;;;;5.90;5.30;;;;;;;;;;5082583;28;20198;-74
2022/04/12 09:37:24;;;;;;;6.72;5.97;;;;;;;;;;5088846;28;20655;-74
2022/04/12 09:40:04;;;;;;;6.88;5.78;;;;;;;;;;5085532;28;20586;-74
2022/04/12 09:42:40;;;;;;;8.50;6.18;;;;;;;;;;5084023;28;20218;-73
2022/04/12 09:45:10;;;;;;;6.20;5.55;;;;;;;;;;5080651;28;20202;-73
2022/04/12 09:47:39;;;;;;;6.47;5.50;;;;;;;;;;5085828;28;20261;-74
2022/04/12 09:50:31;;;;;;;6.88;5.63;;;;;;;;;;5074525;28;20202;-74
2022/04/12 09:53:00;;;;;;;9.35;6.20;;;;;;;;;;5069524;28;20211;-74
2022/04/12 09:55:36;;;;;;;6.18;5.40;;;;;;;;;;5067753;28;20614;-74
2022/04/12 09:58:15;;;;;;;8.13;5.57;;;;;;;;;;5071846;28;20248;-74
2022/04/12 10:00:45;;;;;;;7.20;5.47;;;;;;;;;;5061806;28;20210;-74
2022/04/12 10:03:14;;;;;;;6.88;5.93;;;;;;;;;;5073501;28;20297;-74
2022/04/12 10:05:44;;;;;;;6.95;5.90;;;;;;;;;;5074898;28;20649;-73
2022/04/12 10:08:13;;;;;;;8.93;6.45;;;;;;;;;;5065389;28;20233;-74
2022/04/12 10:10:42;;;;;;;8.10;6.00;;;;;;;;;;5073215;28;20257;-74
2022/04/12 10:13:12;;;;;;;7.93;5.88;;;;;;;;;;5071179;28;20844;-74
2022/04/12 10:15:42;;;;;;;7.35;5.53;;;;;;;;;;5075273;28;20194;-74
2022/04/12 10:18:11;;;;;;;10.93;5.75;;;;;;;;;;5072679;28;20279;-74
2022/04/12 10:20:40;;;;;;;7.20;5.85;;;;;;;;;;5074706;28;20544;-73
2022/04/12 10:23:14;;;;;;;8.88;6.57;;;;;;;;;;5067869;28;20202;-74
2022/04/12 10:25:43;;;;;;;6.90;5.82;;;;;;;;;;5073027;28;20207;-74
2022/04/12 10:28:12;;;;;;;8.20;5.60;;;;;;;;;;5064369;28;20219;-73
2022/04/12 10:30:42;;;;;;;7.90;6.13;;;;;;;;;;5064915;28;20203;-73
2022/04/12 10:33:18;;;;;;;8.52;6.32;;;;;;;;;;5074193;28;20355;-73
2022/04/12 10:35:59;;;;;;;7.95;6.50;;;;;;;;;;5063908;28;20291;-72
2022/04/12 10:38:38;;;;;;;7.00;6.30;;;;;;;;;;5064451;28;20317;-72
2022/04/12 10:41:13;;;;;;;6.88;6.00;;;;;;;;;;5061413;28;20214;-72
2022/04/12 10:43:42;;;;;;;7.40;5.63;;;;;;;;;;5065143;28;20199;-72
2022/04/12 10:46:13;;;;;;;6.45;5.80;;;;;;;;;;5077546;28;20589;-73
2022/04/12 10:48:41;;;;;;;7.75;5.93;;;;;;;;;;5077917;28;20723;-72
2022/04/12 10:51:09;;;;;;;8.57;6.30;;;;;;;;;;5071909;28;20213;-72
2022/04/12 10:53:54;;;;;;;6.97;5.82;;;;;;;;;;5065567;28;20224;-72
2022/04/12 10:56:26;;;;;;;7.65;6.43;;;;;;;;;;5076312;28;20832;-73
2022/04/12 10:58:55;;;;;;;7.28;6.20;;;;;;;;;;5068305;28;20696;-72
2022/04/12 11:01:32;;;;;;;9.48;6.28;;;;;;;;;;5070422;28;20210;-72
2022/04/12 11:04:05;;;;;;;6.90;6.05;;;;;;;;;;5062859;28;20239;-73
2022/04/12 11:06:34;;;;;;;8.32;6.15;;;;;;;;;;5072450;28;20621;-73
2022/04/12 11:09:10;;;;;;;8.15;6.15;;;;;;;;;;5060314;28;20199;-72
2022/04/12 11:11:40;;;;;;;8.18;6.07;;;;;;;;;;5065962;28;20233;-73
2022/04/12 11:14:22;;;;;;;8.40;6.22;;;;;;;;;;5066717;28;20202;-73
2022/04/12 11:16:53;;;;;;;8.15;6.45;;;;;;;;;;5071671;28;20285;-72
2022/04/12 11:19:22;;;;;;;8.88;6.88;;;;;;;;;;5067869;28;20693;-72
2022/04/12 11:21:59;;;;;;;9.27;6.70;;;;;;;;;;5064934;28;20224;-73
2022/04/12 11:24:27;;;;;;;8.90;6.63;;;;;;;;;;5071125;28;20198;-72
2022/04/12 11:27:04;;;;;;;8.25;6.35;;;;;;;;;;5070790;28;20226;-72
2022/04/12 11:29:32;;;;;;;8.30;6.75;;;;;;;;;;5065467;28;20207;-73
2022/04/12 11:32:02;;;;;;;10.93;6.75;;;;;;;;;;5066269;28;20244;-72
2022/04/12 11:34:32;;;;;;;7.55;6.75;;;;;;;;;;5061554;28;20202;-72
2022/04/12 11:37:02;;;;;;;8.98;6.40;;;;;;;;;;5072288;28;20606;-72
2022/04/12 11:39:31;;;;;;;8.13;6.10;;;;;;;;;;5066109;28;20659;-73
2022/04/12 11:42:00;;;;;;;6.65;5.68;;;;;;;;;;5074028;28;20200;-72
2022/04/12 11:44:30;;;;;;;7.32;6.10;;;;;;;;;;5069730;28;20206;-74
2022/04/12 11:47:01;;;;;;;6.50;5.68;;;;;;;;;;5067304;28;20222;-73
2022/04/12 11:49:32;;;;;;;7.22;6.43;;;;;;;;;;5067607;28;20272;-74
2022/04/12 11:52:01;;;;;;;6.97;5.60;;;;;;;;;;5063302;28;20235;-72
2022/04/12 11:54:31;;;;;;;7.13;5.95;;;;;;;;;;5060435;28;20257;-73
2022/04/12 11:57:00;;;;;;;7.18;5.80;;;;;;;;;;5066614;28;20625;-73
2022/04/12 11:59:29;;;;;;;7.32;6.15;;;;;;;;;;5065498;28;20662;-72
2022/04/12 12:01:59;;;;;;;7.10;5.78;;;;;;;;;;5064997;28;20199;-72
2022/04/12 12:04:30;;;;;;;6.65;5.60;;;;;;;;;;5062573;28;20227;-73
2022/04/12 12:07:01;;;;;;;7.82;6.03;;;;;;;;;;5065885;28;20222;-72
2022/04/12 12:09:30;;;;;;;6.78;5.95;;;;;;;;;;5062278;28;20203;-72
2022/04/12 12:11:59;;;;;;;7.28;5.57;;;;;;;;;;5058315;28;20202;-72
2022/04/12 12:14:28;;;;;;;7.03;5.88;;;;;;;;;;5060896;28;20206;-73
2022/04/12 12:17:01;;;;;;;8.13;5.88;;;;;;;;;;5065709;28;20681;-73
2022/04/12 12:19:29;;;;;;;7.65;5.50;;;;;;;;;;5064913;28;20658;-74
2022/04/12 12:21:58;;;;;;;6.03;5.30;;;;;;;;;;5065271;28;20206;-73
2022/04/12 12:24:28;;;;;;;6.47;5.53;;;;;;;;;;5065249;28;20269;-73
2022/04/12 12:26:56;;;;;;;9.13;5.68;;;;;;;;;;5051944;28;20825;-74
2022/04/12 12:29:26;;;;;;;7.78;5.35;;;;;;;;;;5058785;28;20202;-73
2022/04/12 12:31:58;;;;;;;7.30;5.65;;;;;;;;;;5065112;28;20202;-73
2022/04/12 12:34:27;;;;;;;7.50;5.75;;;;;;;;;;5067684;28;20214;-73
2022/04/12 12:36:56;;;;;;;7.85;6.20;;;;;;;;;;5071019;28;20688;-73
2022/04/12 12:39:28;;;;;;;9.93;5.78;;;;;;;;;;5063182;28;20215;-73
2022/04/12 12:41:57;;;;;;;6.78;4.90;;;;;;;;;;5069804;28;20214;-74
2022/04/12 12:44:26;;;;;;;7.60;6.57;;;;;;;;;;5058974;28;20206;-75
2022/04/12 12:46:56;;;;;;;7.10;5.13;;;;;;;;;;5067772;28;20218;-75
2022/04/12 12:49:25;;;;;;;9.77;5.43;;;;;;;;;;5065463;28;20293;-75
2022/04/12 12:51:54;;;;;;;6.30;4.95;;;;;;;;;;5069790;28;20199;-74
2022/04/12 12:54:25;;;;;;;8.73;5.40;;;;;;;;;;5065187;28;20229;-74
2022/04/12 12:56:55;;;;;;;7.55;5.55;;;;;;;;;;5072264;28;20223;-74
2022/04/12 12:59:28;;;;;;;5.50;4.82;;;;;;;;;;5060601;28;20206;-74
2022/04/12 13:01:57;;;;;;;7.25;4.82;;;;;;;;;;5063710;28;20229;-74
2022/04/12 13:04:26;;;;;;;6.65;4.90;;;;;;;;;;5067679;28;20603;-75
2022/04/12 13:07:01;;;;;;;5.68;4.28;;;;;;;;;;5055583;28;20219;-75
2022/04/12 13:09:30;;;;;;;6.35;4.03;;;;;;;;;;5060140;28;20252;-74
2022/04/12 13:11:59;;;;;;;5.60;4.80;;;;;;;;;;5061736;28;20599;-74
2022/04/12 13:14:28;;;;;;;5.53;4.45;;;;;;;;;;5061180;28;20198;-73
2022/04/12 13:16:57;;;;;;;5.32;4.68;;;;;;;;;;5066580;28;20230;-74
2022/04/12 13:19:26;;;;;;;4.95;3.95;;;;;;;;;;5068356;28;20893;-74
2022/04/12 13:21:55;;;;;;;5.35;4.47;;;;;;;;;;5056503;28;20222;-74
2022/04/12 13:24:24;;;;;;;5.30;4.30;;;;;;;;;;5066439;28;20333;-75
2022/04/12 13:26:54;;;;;;;5.15;4.20;;;;;;;;;;5064979;28;20226;-74
2022/04/12 13:29:24;;;;;;;5.30;4.15;;;;;;;;;;5065641;28;20203;-74
2022/04/12 13:31:53;;;;;;;6.10;4.13;;;;;;;;;;5071121;28;20234;-74
2022/04/12 13:34:27;;;;;;;6.63;4.20;;;;;;;;;;5070555;28;20207;-74
2022/04/12 13:36:56;;;;;;;5.13;3.92;;;;;;;;;;5066129;28;20276;-74
2022/04/12 13:39:24;;;;;;;4.22;3.83;;;;;;;;;;5071500;28;20207;-75
2022/04/12 13:41:52;;;;;;;4.57;3.72;;;;;;;;;;5068877;28;20214;-75
2022/04/12 13:44:21;;;;;;;6.18;3.72;;;;;;;;;;5069852;28;20233;-75
2022/04/12 13:47:00;;;;;;;4.47;3.60;;;;;;;;;;5075929;28;20233;-74
2022/04/12 13:49:29;;;;;;;4.68;3.83;;;;;;;;;;5072354;28;20230;-74
2022/04/12 13:51:58;;;;;;;4.57;3.75;;;;;;;;;;5056136;28;20236;-74
2022/04/12 13:54:27;;;;;;;5.43;4.07;;;;;;;;;;5066325;28;20207;-74
2022/04/12 13:56:56;;;;;;;6.07;4.03;;;;;;;;;;5060070;28;20229;-75
2022/04/12 13:59:24;;;;;;;8.75;3.63;;;;;;;;;;5066035;28;20653;-74
2022/04/12 14:01:53;;;;;;;9.68;8.68;;;;;;;;;;5075069;28;20272;-74
2022/04/12 14:04:23;;;;;;;6.95;6.13;;;;;;;;;;5060802;28;20214;-75
2022/04/12 14:06:52;;;;;;;4.45;3.63;;;;;;;;;;5059566;28;20219;-75
2022/04/12 14:09:20;;;;;;;5.22;4.60;;;;;;;;;;5063857;28;20206;-75
2022/04/12 14:11:49;;;;;;;4.65;3.72;;;;;;;;;;5075406;28;20244;-74
2022/04/12 14:14:17;;;;;;;4.68;3.60;;;;;;;;;;5067380;28;20203;-74
2022/04/12 14:16:46;;;;;;;6.30;3.80;;;;;;;;;;5059837;28;20279;-75
2022/04/12 14:19:15;;;;;;;3.97;3.58;;;;;;;;;;4712380;23;10001895;-74
2022/04/12 14:21:45;;;;;;;5.55;3.83;;;;;;;;;;5043980;28;20227;-72
2022/04/12 14:24:14;;;;;;;7.78;4.03;;;;;;;;;;5040463;28;20208;-74
2022/04/12 14:26:45;;;;;;;4.20;3.47;;;;;;;;;;5048519;28;20235;-75
2022/04/12 14:29:15;;;;;;;6.80;4.15;;;;;;;;;;5039443;28;20670;-73
2022/04/12 14:31:44;;;;;;;4.28;3.63;;;;;;;;;;5038826;28;20203;-74
2022/04/12 14:34:13;;;;;;;4.68;3.70;;;;;;;;;;5038822;28;20616;-73
2022/04/12 14:36:41;;;;;;;4.05;3.35;;;;;;;;;;5044628;28;20286;-73
2022/04/12 14:39:11;;;;;;;4.65;3.85;;;;;;;;;;5037800;28;20204;-75
2022/04/12 14:41:40;;;;;;;4.28;3.40;;;;;;;;;;5040438;28;20227;-73
2022/04/12 14:44:09;;;;;;;4.70;3.58;;;;;;;;;;5042209;28;20207;-75
2022/04/12 14:46:37;;;;;;;4.63;3.90;;;;;;;;;;5026316;28;20227;-72
2022/04/12 14:49:06;;;;;;;5.43;3.83;;;;;;;;;;5034136;28;20203;-73
2022/04/12 14:51:35;;;;;;;4.32;3.67;;;;;;;;;;5036686;28;20222;-74
2022/04/12 14:54:03;;;;;;;6.45;4.30;;;;;;;;;;5041550;28;20203;-73
2022/04/12 14:56:34;;;;;;;4.65;4.10;;;;;;;;;;5034935;28;20615;-74
2022/04/12 14:59:07;;;;;;;5.45;4.00;;;;;;;;;;5025589;28;20215;-74
2022/04/12 15:01:36;;;;;;;4.07;3.40;;;;;;;;;;5023953;28;20227;-73
2022/04/12 15:04:05;;;;;;;4.35;3.78;;;;;;;;;;4687991;28;9999713;-73
2022/04/12 15:06:34;;;;;;;5.63;3.80;;;;;;;;;;5047863;28;20207;-74